LOT6PH EPWA-LDZA
Flight info
| Callsign | LOT6PH |
|---|---|
| Flight time | 1h 28m |
| Altitude | 40000 |
| Route | EVINA DCT SKARY DCT XOMBA DCT NEKIN |
| Aircraft | B38M/M-SDE1FGHILORVWXY/HB1 |
Departure
| Time | 2026-04-30 02:04 |
|---|---|
| Airport | Warsaw Chopin Airport (EPWA) |
Arrival
| Time | 2026-04-30 03:32 |
|---|---|
| Airport | Zagreb Franjo Tuđman International Airport (LDZA) |
| Time | Latitude | Longitude | Altitude | Speed | Heading |
|---|---|---|---|---|---|
| 2026-04-30 01:45 | 52.16914 | 20.97224 | 368 ft | 0 kts | 76° |
| 2026-04-30 01:52 | 52.16914 | 20.97223 | 368 ft | 0 kts | 76° |
| 2026-04-30 01:56 | 52.16911 | 20.97203 | 339 ft | 4 kts | 76° |
| 2026-04-30 01:57 | 52.16904 | 20.97160 | 336 ft | 4 kts | 76° |
| 2026-04-30 01:57 | 52.16899 | 20.97125 | 337 ft | 4 kts | 78° |
| 2026-04-30 01:57 | 52.16900 | 20.97085 | 338 ft | 4 kts | 115° |
| 2026-04-30 01:57 | 52.16916 | 20.97052 | 336 ft | 4 kts | 146° |
| 2026-04-30 01:58 | 52.16924 | 20.97044 | 336 ft | 2 kts | 152° |
| 2026-04-30 02:01 | 52.16923 | 20.97045 | 336 ft | 1 kts | 152° |
| 2026-04-30 02:01 | 52.16900 | 20.97065 | 336 ft | 6 kts | 152° |
| 2026-04-30 02:01 | 52.16841 | 20.97116 | 338 ft | 12 kts | 152° |
| 2026-04-30 02:01 | 52.16756 | 20.97176 | 340 ft | 15 kts | 183° |
| 2026-04-30 02:02 | 52.16681 | 20.97059 | 341 ft | 16 kts | 213° |
| 2026-04-30 02:02 | 52.16584 | 20.97100 | 341 ft | 16 kts | 152° |
| 2026-04-30 02:02 | 52.16515 | 20.97161 | 338 ft | 5 kts | 152° |
| 2026-04-30 02:02 | 52.16486 | 20.97186 | 340 ft | 6 kts | 151° |
| 2026-04-30 02:03 | 52.16442 | 20.97205 | 340 ft | 6 kts | 219° |
| 2026-04-30 02:03 | 52.16444 | 20.97167 | 339 ft | 0 kts | 296° |
| 2026-04-30 02:03 | 52.16454 | 20.97132 | 339 ft | 18 kts | 295° |
| 2026-04-30 02:03 | 52.16641 | 20.96474 | 347 ft | 107 kts | 295° |
| 2026-04-30 02:04 | 52.17046 | 20.95035 | 525 ft | 161 kts | 294° |
| 2026-04-30 02:04 | 52.17543 | 20.93261 | 1384 ft | 172 kts | 295° |
| 2026-04-30 02:04 | 52.18021 | 20.91515 | 2491 ft | 173 kts | 292° |
| 2026-04-30 02:04 | 52.18359 | 20.89493 | 3080 ft | 198 kts | 276° |
| 2026-04-30 02:05 | 52.18222 | 20.87157 | 3695 ft | 224 kts | 255° |
| 2026-04-30 02:05 | 52.17791 | 20.84569 | 4460 ft | 244 kts | 256° |
| 2026-04-30 02:05 | 52.17353 | 20.81808 | 5312 ft | 258 kts | 257° |
| 2026-04-30 02:05 | 52.16902 | 20.79002 | 6420 ft | 262 kts | 254° |
| 2026-04-30 02:06 | 52.15876 | 20.76445 | 7385 ft | 275 kts | 221° |
| 2026-04-30 02:06 | 52.14202 | 20.74865 | 8343 ft | 285 kts | 202° |
| 2026-04-30 02:06 | 52.12261 | 20.73827 | 9323 ft | 292 kts | 198° |
| 2026-04-30 02:06 | 52.10307 | 20.72789 | 10304 ft | 299 kts | 198° |
| 2026-04-30 02:07 | 52.08298 | 20.71731 | 11025 ft | 312 kts | 198° |
| 2026-04-30 02:07 | 52.06175 | 20.70618 | 11613 ft | 328 kts | 198° |
| 2026-04-30 02:07 | 52.03959 | 20.69460 | 12300 ft | 338 kts | 198° |
| 2026-04-30 02:07 | 52.01679 | 20.68273 | 13208 ft | 343 kts | 197° |
| 2026-04-30 02:08 | 51.99382 | 20.67077 | 14004 ft | 350 kts | 197° |
| 2026-04-30 02:08 | 51.97047 | 20.65863 | 14760 ft | 355 kts | 197° |
| 2026-04-30 02:08 | 51.94685 | 20.64636 | 15498 ft | 360 kts | 197° |
| 2026-04-30 02:08 | 51.92285 | 20.63391 | 16217 ft | 364 kts | 197° |
| 2026-04-30 02:09 | 51.89850 | 20.62129 | 16931 ft | 369 kts | 197° |
| 2026-04-30 02:09 | 51.87392 | 20.60858 | 17638 ft | 373 kts | 197° |
| 2026-04-30 02:09 | 51.84902 | 20.59571 | 18332 ft | 378 kts | 197° |
| 2026-04-30 02:09 | 51.82386 | 20.58272 | 18964 ft | 382 kts | 197° |
| 2026-04-30 02:10 | 51.79845 | 20.56962 | 19538 ft | 386 kts | 197° |
| 2026-04-30 02:10 | 51.77272 | 20.55637 | 20107 ft | 390 kts | 197° |
| 2026-04-30 02:10 | 51.74670 | 20.54298 | 20654 ft | 394 kts | 197° |
| 2026-04-30 02:10 | 51.72041 | 20.52948 | 21199 ft | 398 kts | 197° |
| 2026-04-30 02:11 | 51.69389 | 20.51588 | 21728 ft | 402 kts | 197° |
| 2026-04-30 02:11 | 51.66708 | 20.50214 | 22267 ft | 406 kts | 196° |
| 2026-04-30 02:11 | 51.63996 | 20.48826 | 22780 ft | 411 kts | 196° |
| 2026-04-30 02:11 | 51.61261 | 20.47427 | 23338 ft | 415 kts | 196° |
| 2026-04-30 02:12 | 51.58500 | 20.46017 | 23874 ft | 419 kts | 196° |
| 2026-04-30 02:12 | 51.55704 | 20.44592 | 24340 ft | 423 kts | 196° |
| 2026-04-30 02:12 | 51.52886 | 20.43157 | 24814 ft | 427 kts | 196° |
| 2026-04-30 02:12 | 51.50041 | 20.41710 | 25291 ft | 430 kts | 196° |
| 2026-04-30 02:13 | 51.47136 | 20.40235 | 25779 ft | 434 kts | 196° |
| 2026-04-30 02:13 | 51.44287 | 20.38790 | 26242 ft | 437 kts | 195° |
| 2026-04-30 02:13 | 51.41380 | 20.37317 | 26706 ft | 440 kts | 195° |
| 2026-04-30 02:13 | 51.38463 | 20.35740 | 27156 ft | 445 kts | 202° |
| 2026-04-30 02:14 | 51.35650 | 20.33657 | 27619 ft | 448 kts | 204° |
| 2026-04-30 02:14 | 51.32808 | 20.31554 | 28048 ft | 452 kts | 204° |
| 2026-04-30 02:14 | 51.29946 | 20.29432 | 28486 ft | 455 kts | 204° |
| 2026-04-30 02:14 | 51.27060 | 20.27294 | 28919 ft | 458 kts | 204° |
| 2026-04-30 02:15 | 51.24148 | 20.25139 | 29341 ft | 462 kts | 204° |
| 2026-04-30 02:15 | 51.21196 | 20.22956 | 29765 ft | 465 kts | 204° |
| 2026-04-30 02:15 | 51.18212 | 20.20753 | 30173 ft | 468 kts | 203° |
| 2026-04-30 02:15 | 51.15166 | 20.18507 | 30575 ft | 471 kts | 204° |
| 2026-04-30 02:16 | 51.13193 | 20.17055 | 30798 ft | 473 kts | 204° |
| 2026-04-30 02:16 | 51.10191 | 20.14846 | 31152 ft | 476 kts | 204° |
| 2026-04-30 02:16 | 51.07139 | 20.12605 | 31496 ft | 478 kts | 204° |
| 2026-04-30 02:16 | 51.04109 | 20.10383 | 31829 ft | 480 kts | 204° |
| 2026-04-30 02:17 | 51.01031 | 20.08129 | 32169 ft | 483 kts | 204° |
| 2026-04-30 02:17 | 50.97933 | 20.05864 | 32504 ft | 485 kts | 204° |
| 2026-04-30 02:17 | 50.94856 | 20.03618 | 32862 ft | 486 kts | 204° |
| 2026-04-30 02:17 | 50.91785 | 20.01379 | 33305 ft | 485 kts | 204° |
| 2026-04-30 02:18 | 50.88678 | 19.99118 | 33752 ft | 485 kts | 204° |
| 2026-04-30 02:18 | 50.85615 | 19.96891 | 34189 ft | 484 kts | 204° |
| 2026-04-30 02:18 | 50.82554 | 19.94669 | 34467 ft | 485 kts | 204° |
| 2026-04-30 02:19 | 50.76447 | 19.90247 | 34457 ft | 482 kts | 204° |
| 2026-04-30 02:19 | 50.70353 | 19.85846 | 34447 ft | 481 kts | 204° |
| 2026-04-30 02:20 | 50.64224 | 19.81432 | 34448 ft | 481 kts | 203° |
| 2026-04-30 02:20 | 50.58146 | 19.77068 | 34443 ft | 480 kts | 203° |
| 2026-04-30 02:21 | 50.52073 | 19.72720 | 34446 ft | 480 kts | 203° |
| 2026-04-30 02:21 | 50.45992 | 19.68379 | 34455 ft | 479 kts | 203° |
| 2026-04-30 02:22 | 50.39921 | 19.64057 | 34445 ft | 479 kts | 203° |
| 2026-04-30 02:22 | 50.37272 | 19.62174 | 34440 ft | 479 kts | 203° |
| 2026-04-30 02:23 | 50.32236 | 19.58603 | 34452 ft | 478 kts | 203° |
| 2026-04-30 02:23 | 50.26179 | 19.54318 | 34447 ft | 478 kts | 203° |
| 2026-04-30 02:24 | 50.20124 | 19.50047 | 34450 ft | 477 kts | 203° |
| 2026-04-30 02:24 | 50.14075 | 19.45792 | 34449 ft | 476 kts | 203° |
| 2026-04-30 02:25 | 50.08037 | 19.41556 | 34449 ft | 476 kts | 203° |
| 2026-04-30 02:25 | 50.02000 | 19.37333 | 34446 ft | 475 kts | 203° |
| 2026-04-30 02:26 | 49.95972 | 19.33128 | 34444 ft | 475 kts | 203° |
| 2026-04-30 02:26 | 49.89946 | 19.28936 | 34443 ft | 474 kts | 203° |
| 2026-04-30 02:27 | 49.83930 | 19.24762 | 34445 ft | 473 kts | 203° |
| 2026-04-30 02:27 | 49.77926 | 19.20607 | 34443 ft | 473 kts | 203° |
| 2026-04-30 02:28 | 49.71924 | 19.16466 | 34441 ft | 472 kts | 203° |
| 2026-04-30 02:28 | 49.65925 | 19.12338 | 34449 ft | 471 kts | 203° |
| 2026-04-30 02:29 | 49.59942 | 19.08231 | 34449 ft | 471 kts | 203° |
| 2026-04-30 02:29 | 49.53960 | 19.04134 | 34454 ft | 470 kts | 203° |
| 2026-04-30 02:30 | 49.47987 | 19.00054 | 34450 ft | 469 kts | 203° |
| 2026-04-30 02:30 | 49.41892 | 18.96324 | 34451 ft | 467 kts | 198° |
| 2026-04-30 02:31 | 49.35767 | 18.92957 | 34443 ft | 467 kts | 199° |
| 2026-04-30 02:31 | 49.29663 | 18.89545 | 34432 ft | 467 kts | 199° |
| 2026-04-30 02:32 | 49.23569 | 18.86143 | 34429 ft | 466 kts | 199° |
| 2026-04-30 02:32 | 49.17517 | 18.82773 | 34439 ft | 465 kts | 199° |
| 2026-04-30 02:33 | 49.11397 | 18.79373 | 34434 ft | 465 kts | 199° |
| 2026-04-30 02:33 | 49.05367 | 18.76032 | 34434 ft | 464 kts | 199° |
| 2026-04-30 02:34 | 48.99265 | 18.72660 | 34433 ft | 463 kts | 199° |
| 2026-04-30 02:34 | 48.93211 | 18.69324 | 34434 ft | 463 kts | 200° |
| 2026-04-30 02:35 | 48.87148 | 18.65991 | 34432 ft | 463 kts | 200° |
| 2026-04-30 02:35 | 48.81089 | 18.62668 | 34431 ft | 462 kts | 200° |
| 2026-04-30 02:36 | 48.75043 | 18.59362 | 34423 ft | 463 kts | 200° |
| 2026-04-30 02:36 | 48.68984 | 18.56057 | 34421 ft | 463 kts | 200° |
| 2026-04-30 02:37 | 48.62915 | 18.52754 | 34422 ft | 463 kts | 200° |
| 2026-04-30 02:37 | 48.56853 | 18.49465 | 34414 ft | 464 kts | 200° |
| 2026-04-30 02:38 | 48.50777 | 18.46175 | 34417 ft | 464 kts | 200° |
| 2026-04-30 02:38 | 48.44702 | 18.42895 | 34410 ft | 464 kts | 200° |
| 2026-04-30 02:39 | 48.38628 | 18.39624 | 34408 ft | 463 kts | 200° |
| 2026-04-30 02:39 | 48.32561 | 18.36365 | 34403 ft | 463 kts | 200° |
| 2026-04-30 02:40 | 48.26495 | 18.33114 | 34397 ft | 462 kts | 201° |
| 2026-04-30 02:40 | 48.20439 | 18.29877 | 34396 ft | 462 kts | 201° |
| 2026-04-30 02:41 | 48.14391 | 18.26652 | 34397 ft | 461 kts | 201° |
| 2026-04-30 02:41 | 48.08354 | 18.23442 | 34397 ft | 460 kts | 201° |
| 2026-04-30 02:42 | 48.02320 | 18.20241 | 34394 ft | 459 kts | 201° |
| 2026-04-30 02:42 | 47.96303 | 18.17056 | 34390 ft | 458 kts | 201° |
| 2026-04-30 02:43 | 47.90302 | 18.13888 | 34384 ft | 457 kts | 201° |
| 2026-04-30 02:43 | 47.84319 | 18.10736 | 34392 ft | 456 kts | 201° |
| 2026-04-30 02:44 | 47.78338 | 18.07592 | 34393 ft | 456 kts | 201° |
| 2026-04-30 02:44 | 47.75418 | 18.05797 | 34378 ft | 451 kts | 213° |
| 2026-04-30 02:44 | 47.72850 | 18.03171 | 34404 ft | 449 kts | 217° |
| 2026-04-30 02:45 | 47.67654 | 17.97874 | 34398 ft | 450 kts | 217° |
| 2026-04-30 02:45 | 47.62518 | 17.92580 | 34400 ft | 449 kts | 217° |
| 2026-04-30 02:46 | 47.58254 | 17.88183 | 34397 ft | 449 kts | 217° |
| 2026-04-30 02:46 | 47.53125 | 17.82905 | 34396 ft | 448 kts | 217° |
| 2026-04-30 02:47 | 47.48005 | 17.77647 | 34391 ft | 448 kts | 217° |
| 2026-04-30 02:47 | 47.42886 | 17.72405 | 34396 ft | 447 kts | 217° |
| 2026-04-30 02:48 | 47.37771 | 17.67180 | 34400 ft | 447 kts | 217° |
| 2026-04-30 02:48 | 47.32660 | 17.61970 | 34407 ft | 446 kts | 217° |
| 2026-04-30 02:49 | 47.27556 | 17.56780 | 34404 ft | 446 kts | 217° |
| 2026-04-30 02:49 | 47.22456 | 17.51606 | 34393 ft | 445 kts | 217° |
| 2026-04-30 02:50 | 47.17358 | 17.46447 | 34387 ft | 444 kts | 217° |
| 2026-04-30 02:50 | 47.12246 | 17.41285 | 34379 ft | 443 kts | 217° |
| 2026-04-30 02:51 | 47.07173 | 17.36176 | 34376 ft | 442 kts | 217° |
| 2026-04-30 02:51 | 47.02129 | 17.31108 | 34350 ft | 431 kts | 218° |
| 2026-04-30 02:51 | 46.99685 | 17.28656 | 34038 ft | 423 kts | 218° |
| 2026-04-30 02:52 | 46.97260 | 17.26227 | 33496 ft | 422 kts | 218° |
| 2026-04-30 02:52 | 46.94840 | 17.23804 | 32982 ft | 420 kts | 218° |
| 2026-04-30 02:52 | 46.92435 | 17.21399 | 32520 ft | 417 kts | 218° |
| 2026-04-30 02:52 | 46.90045 | 17.19013 | 32069 ft | 415 kts | 218° |
| 2026-04-30 02:53 | 46.87671 | 17.16645 | 31624 ft | 412 kts | 218° |
| 2026-04-30 02:53 | 46.85312 | 17.14294 | 31179 ft | 410 kts | 218° |
| 2026-04-30 02:53 | 46.82961 | 17.11954 | 30739 ft | 408 kts | 218° |
| 2026-04-30 02:53 | 46.80622 | 17.09628 | 30261 ft | 406 kts | 218° |
| 2026-04-30 02:54 | 46.78296 | 17.07318 | 29758 ft | 403 kts | 218° |
| 2026-04-30 02:54 | 46.75988 | 17.05028 | 29325 ft | 399 kts | 218° |
| 2026-04-30 02:54 | 46.73701 | 17.02761 | 28905 ft | 396 kts | 218° |
| 2026-04-30 02:54 | 46.71432 | 17.00515 | 28488 ft | 392 kts | 218° |
| 2026-04-30 02:55 | 46.69185 | 16.98292 | 28071 ft | 389 kts | 218° |
| 2026-04-30 02:55 | 46.66954 | 16.96087 | 27667 ft | 386 kts | 218° |
| 2026-04-30 02:55 | 46.64736 | 16.93898 | 27271 ft | 384 kts | 217° |
| 2026-04-30 02:55 | 46.62537 | 16.91729 | 26861 ft | 381 kts | 217° |
| 2026-04-30 02:56 | 46.60348 | 16.89573 | 26471 ft | 379 kts | 217° |
| 2026-04-30 02:56 | 46.58168 | 16.87427 | 26073 ft | 377 kts | 217° |
| 2026-04-30 02:56 | 46.55975 | 16.85271 | 25686 ft | 375 kts | 217° |
| 2026-04-30 02:56 | 46.53843 | 16.83176 | 25292 ft | 374 kts | 217° |
| 2026-04-30 02:57 | 46.51692 | 16.81065 | 24902 ft | 372 kts | 218° |
| 2026-04-30 02:57 | 46.49551 | 16.78965 | 24511 ft | 371 kts | 218° |
| 2026-04-30 02:57 | 46.47389 | 16.76846 | 24126 ft | 370 kts | 218° |
| 2026-04-30 02:57 | 46.45262 | 16.74764 | 23700 ft | 369 kts | 218° |
| 2026-04-30 02:58 | 46.43136 | 16.72685 | 23264 ft | 367 kts | 218° |
| 2026-04-30 02:58 | 46.41035 | 16.70622 | 22874 ft | 363 kts | 219° |
| 2026-04-30 02:58 | 46.39151 | 16.68236 | 22440 ft | 358 kts | 227° |
| 2026-04-30 02:58 | 46.37322 | 16.65814 | 22108 ft | 354 kts | 226° |
| 2026-04-30 02:59 | 46.35495 | 16.63443 | 21757 ft | 351 kts | 225° |
| 2026-04-30 02:59 | 46.33672 | 16.61102 | 21396 ft | 349 kts | 225° |
| 2026-04-30 02:59 | 46.31859 | 16.58790 | 21034 ft | 347 kts | 225° |
| 2026-04-30 02:59 | 46.30055 | 16.56495 | 20679 ft | 345 kts | 225° |
| 2026-04-30 03:00 | 46.28256 | 16.54213 | 20322 ft | 343 kts | 224° |
| 2026-04-30 03:00 | 46.26467 | 16.51946 | 19966 ft | 341 kts | 224° |
| 2026-04-30 03:00 | 46.24686 | 16.49692 | 19615 ft | 340 kts | 224° |
| 2026-04-30 03:00 | 46.22909 | 16.47445 | 19251 ft | 339 kts | 224° |
| 2026-04-30 03:01 | 46.21141 | 16.45211 | 18905 ft | 337 kts | 224° |
| 2026-04-30 03:01 | 46.19377 | 16.42983 | 18539 ft | 337 kts | 224° |
| 2026-04-30 03:01 | 46.17618 | 16.40764 | 18154 ft | 336 kts | 224° |
| 2026-04-30 03:01 | 46.15858 | 16.38546 | 17786 ft | 334 kts | 224° |
| 2026-04-30 03:02 | 46.14115 | 16.36350 | 17440 ft | 332 kts | 224° |
| 2026-04-30 03:02 | 46.12377 | 16.34164 | 17089 ft | 330 kts | 224° |
| 2026-04-30 03:02 | 46.11339 | 16.32859 | 16880 ft | 329 kts | 224° |
| 2026-04-30 03:02 | 46.10540 | 16.31853 | 16719 ft | 328 kts | 224° |
| 2026-04-30 03:03 | 46.09411 | 16.30437 | 16475 ft | 327 kts | 224° |
| 2026-04-30 03:03 | 46.05998 | 16.26156 | 15808 ft | 323 kts | 224° |
| 2026-04-30 03:03 | 46.04305 | 16.24035 | 15467 ft | 322 kts | 224° |
| 2026-04-30 03:04 | 46.02620 | 16.21923 | 15126 ft | 320 kts | 224° |
| 2026-04-30 03:04 | 46.00995 | 16.19749 | 14765 ft | 318 kts | 231° |
| 2026-04-30 03:04 | 45.99506 | 16.17406 | 14404 ft | 317 kts | 231° |
| 2026-04-30 03:04 | 45.98009 | 16.15084 | 14075 ft | 316 kts | 230° |
| 2026-04-30 03:05 | 45.96511 | 16.12782 | 13710 ft | 315 kts | 230° |
| 2026-04-30 03:05 | 45.95011 | 16.10493 | 13353 ft | 313 kts | 230° |
| 2026-04-30 03:05 | 45.93524 | 16.08232 | 13020 ft | 311 kts | 230° |
| 2026-04-30 03:05 | 45.92043 | 16.05985 | 12684 ft | 308 kts | 230° |
| 2026-04-30 03:06 | 45.90577 | 16.03764 | 12366 ft | 306 kts | 230° |
| 2026-04-30 03:06 | 45.89118 | 16.01557 | 12030 ft | 303 kts | 230° |
| 2026-04-30 03:06 | 45.87674 | 15.99373 | 11719 ft | 301 kts | 230° |
| 2026-04-30 03:06 | 45.86237 | 15.97202 | 11385 ft | 299 kts | 230° |
| 2026-04-30 03:07 | 45.84812 | 15.95046 | 11065 ft | 297 kts | 230° |
| 2026-04-30 03:07 | 45.83396 | 15.92894 | 10727 ft | 297 kts | 230° |
| 2026-04-30 03:07 | 45.81982 | 15.90748 | 10428 ft | 295 kts | 229° |
| 2026-04-30 03:07 | 45.80577 | 15.88619 | 10096 ft | 293 kts | 229° |
| 2026-04-30 03:08 | 45.79176 | 15.86495 | 9764 ft | 292 kts | 229° |
| 2026-04-30 03:08 | 45.77785 | 15.84388 | 9433 ft | 290 kts | 229° |
| 2026-04-30 03:08 | 45.76403 | 15.82299 | 9121 ft | 288 kts | 229° |
| 2026-04-30 03:08 | 45.75999 | 15.81687 | 9030 ft | 287 kts | 229° |
| 2026-04-30 03:21 | 45.74823 | 15.79910 | 8752 ft | 286 kts | 229° |
| 2026-04-30 03:21 | 45.73451 | 15.77839 | 8323 ft | 289 kts | 229° |
| 2026-04-30 03:21 | 45.72052 | 15.75728 | 7844 ft | 294 kts | 228° |
| 2026-04-30 03:21 | 45.70643 | 15.73603 | 7471 ft | 294 kts | 228° |
| 2026-04-30 03:22 | 45.69242 | 15.71493 | 7154 ft | 293 kts | 228° |
| 2026-04-30 03:22 | 45.67836 | 15.69375 | 6791 ft | 293 kts | 227° |
| 2026-04-30 03:22 | 45.66417 | 15.67297 | 6435 ft | 292 kts | 221° |
| 2026-04-30 03:22 | 45.65256 | 15.66258 | 6163 ft | 292 kts | 201° |
| 2026-04-30 03:23 | 45.63277 | 15.65866 | 5820 ft | 286 kts | 170° |
| 2026-04-30 03:23 | 45.61456 | 15.66795 | 5544 ft | 274 kts | 142° |
| 2026-04-30 03:23 | 45.60018 | 15.68507 | 5266 ft | 267 kts | 133° |
| 2026-04-30 03:23 | 45.58653 | 15.70290 | 4986 ft | 265 kts | 132° |
| 2026-04-30 03:24 | 45.57305 | 15.72072 | 4701 ft | 262 kts | 131° |
| 2026-04-30 03:24 | 45.56154 | 15.73979 | 4543 ft | 245 kts | 111° |
| 2026-04-30 03:24 | 45.55778 | 15.76216 | 4425 ft | 225 kts | 83° |
| 2026-04-30 03:24 | 45.56134 | 15.78265 | 4384 ft | 204 kts | 62° |
| 2026-04-30 03:25 | 45.56818 | 15.79965 | 4277 ft | 192 kts | 53° |
| 2026-04-30 03:25 | 45.57622 | 15.81427 | 4156 ft | 182 kts | 49° |
| 2026-04-30 03:25 | 45.58435 | 15.82756 | 4059 ft | 172 kts | 47° |
| 2026-04-30 03:25 | 45.59177 | 15.83916 | 4033 ft | 148 kts | 46° |
| 2026-04-30 03:26 | 45.59846 | 15.84941 | 4033 ft | 135 kts | 46° |
| 2026-04-30 03:26 | 45.60477 | 15.85903 | 4004 ft | 131 kts | 46° |
| 2026-04-30 03:26 | 45.61092 | 15.86839 | 3850 ft | 126 kts | 46° |
| 2026-04-30 03:26 | 45.61687 | 15.87742 | 3699 ft | 124 kts | 47° |
| 2026-04-30 03:27 | 45.62277 | 15.88638 | 3541 ft | 124 kts | 47° |
| 2026-04-30 03:27 | 45.62867 | 15.89533 | 3394 ft | 123 kts | 47° |
| 2026-04-30 03:27 | 45.63448 | 15.90413 | 3230 ft | 121 kts | 47° |
| 2026-04-30 03:27 | 45.64024 | 15.91287 | 3061 ft | 121 kts | 47° |
| 2026-04-30 03:28 | 45.64598 | 15.92156 | 2902 ft | 120 kts | 47° |
| 2026-04-30 03:28 | 45.65172 | 15.93029 | 2745 ft | 121 kts | 47° |
| 2026-04-30 03:28 | 45.65745 | 15.93899 | 2594 ft | 120 kts | 47° |
| 2026-04-30 03:28 | 45.66314 | 15.94760 | 2423 ft | 119 kts | 47° |
| 2026-04-30 03:29 | 45.66878 | 15.95618 | 2245 ft | 118 kts | 47° |
| 2026-04-30 03:29 | 45.67442 | 15.96475 | 2093 ft | 118 kts | 46° |
| 2026-04-30 03:29 | 45.68008 | 15.97333 | 1922 ft | 119 kts | 46° |
| 2026-04-30 03:29 | 45.68573 | 15.98190 | 1755 ft | 121 kts | 45° |
| 2026-04-30 03:30 | 45.69161 | 15.99083 | 1586 ft | 122 kts | 45° |
| 2026-04-30 03:30 | 45.69750 | 15.99978 | 1404 ft | 125 kts | 45° |
| 2026-04-30 03:30 | 45.70345 | 16.00882 | 1214 ft | 128 kts | 45° |
| 2026-04-30 03:30 | 45.70955 | 16.01810 | 1033 ft | 131 kts | 45° |
| 2026-04-30 03:31 | 45.71593 | 16.02780 | 851 ft | 132 kts | 44° |
| 2026-04-30 03:31 | 45.72229 | 16.03740 | 676 ft | 135 kts | 44° |
| 2026-04-30 03:31 | 45.72854 | 16.04686 | 499 ft | 131 kts | 44° |
| 2026-04-30 03:31 | 45.73452 | 16.05599 | 366 ft | 119 kts | 45° |
| 2026-04-30 03:32 | 45.73917 | 16.06305 | 364 ft | 66 kts | 47° |
| 2026-04-30 03:32 | 45.74148 | 16.06662 | 365 ft | 48 kts | 46° |
| 2026-04-30 03:32 | 45.74378 | 16.07002 | 364 ft | 44 kts | 47° |
| 2026-04-30 03:32 | 45.74566 | 16.07294 | 362 ft | 31 kts | 47° |
| 2026-04-30 03:33 | 45.74671 | 16.07462 | 366 ft | 18 kts | 67° |
| 2026-04-30 03:33 | 45.74613 | 16.07597 | 361 ft | 16 kts | 136° |
| 2026-04-30 03:33 | 45.74531 | 16.07710 | 366 ft | 17 kts | 136° |
| 2026-04-30 03:33 | 45.74437 | 16.07836 | 362 ft | 19 kts | 138° |
| 2026-04-30 03:34 | 45.74329 | 16.07903 | 367 ft | 16 kts | 175° |
| 2026-04-30 03:34 | 45.74274 | 16.07949 | 365 ft | 3 kts | 137° |
| 2026-04-30 03:34 | 45.74268 | 16.07958 | 361 ft | 1 kts | 137° |
| 2026-04-30 03:34 | 45.74265 | 16.07962 | 361 ft | 0 kts | 137° |
| 2026-04-30 03:37 | 45.74265 | 16.07961 | 361 ft | 0 kts | 137° |